Alliance, Nebraska
Current Conditions -  °F | °C
As of 10:15 AM on Wednesday 26 Nov 2014 (Local Time) from KAIA Reporting Station
Overcast Overcast  
Wind Chill: 28°   Ceiling: 1100
Heat Index: 28°   Visibility: 10mi
Dew Point: 22°   Wind: 3mph
Humidity: 78%   Direction: NA
Pressure: 30.24"   Gusts: NA
Location:  42.1°N, 102.87°W
Report Text: KAIA 261715Z AUTO VRB03KT 10SM BKN011 BKN038 OVC080 M02/M06 A3024 RMK AO2 SNE00 P0000 T10221056
Loading
Personal Weather Stations






























Interactive Weather Map New forecast layout! Learn more

10-Day Weather Forecast

Advertisements
Track Severe Weather on mobile